createdAt,value
2023-01-09T07:04:59.416Z,100949.08
2023-01-09T07:06:03.041Z,100942.16
2023-01-09T07:07:06.429Z,100947.34
2023-01-09T07:08:09.307Z,100948.26
2023-01-09T07:09:14.243Z,100953.48
2023-01-09T07:10:17.775Z,100950.03
2023-01-09T07:11:21.023Z,100950.92
2023-01-09T07:12:25.403Z,100951.76
2023-01-09T07:13:28.522Z,100949.17
2023-01-09T07:14:31.321Z,100943.98
2023-01-09T07:15:34.801Z,100944.02
2023-01-09T07:16:38.273Z,100932.77
2023-01-09T07:17:41.493Z,100943.16
2023-01-09T07:18:44.770Z,100937.97
2023-01-09T07:19:48.164Z,100932.81
2023-01-09T07:20:50.753Z,100935.41
2023-01-09T07:21:54.010Z,100940.61
2023-01-09T07:24:21.832Z,100930.17
2023-01-09T07:25:26.822Z,100931.03
2023-01-09T07:26:30.425Z,100943.12
2023-01-09T07:27:33.718Z,100931.87
2023-01-09T07:28:37.089Z,100930.20
2023-01-09T07:29:41.444Z,100927.58
2023-01-09T07:30:43.895Z,100921.58
2023-01-09T07:31:47.937Z,100929.36
2023-01-09T07:32:51.652Z,100931.95
2023-01-09T07:33:54.798Z,100926.77
2023-01-09T07:34:59.177Z,100923.30
2023-01-09T07:36:02.866Z,100924.16
2023-01-09T07:37:06.384Z,100917.25
2023-01-09T07:38:08.899Z,100921.61
2023-01-09T07:39:12.467Z,100924.20
2023-01-09T07:40:16.283Z,100931.98
2023-01-09T07:41:21.485Z,100925.92
2023-01-09T07:42:25.832Z,100924.22
2023-01-09T07:43:28.263Z,100921.61
2023-01-09T07:44:32.700Z,100931.13
2023-01-09T07:45:35.728Z,100926.80
2023-01-09T07:46:39.137Z,100933.72
2023-01-09T07:47:44.455Z,100936.31
2023-01-09T07:48:47.525Z,100932.01
2023-01-09T07:49:50.895Z,100938.94
2023-01-09T07:50:59.585Z,100934.61
2023-01-09T07:52:06.217Z,100935.47
2023-01-09T07:53:09.546Z,100935.44
2023-01-09T07:54:15.640Z,100933.73
2023-01-09T07:55:17.994Z,100934.59
2023-01-09T07:56:21.618Z,100927.68
2023-01-09T07:57:25.106Z,100944.12
2023-01-09T07:58:28.183Z,100930.27
2023-01-09T07:59:32.644Z,100945.84
2023-01-09T08:00:35.315Z,100942.36
2023-01-09T08:01:40.163Z,100945.84
2023-01-09T08:02:43.359Z,100944.11
2023-01-09T08:03:46.974Z,100951.91
2023-01-09T08:04:50.367Z,100957.97
2023-01-09T08:05:54.192Z,100950.17
2023-01-09T08:06:57.847Z,100948.42
2023-01-09T08:08:02.451Z,100951.03
2023-01-09T08:09:05.862Z,100947.58
2023-01-09T08:10:11.282Z,100943.25
2023-01-09T08:11:17.002Z,100948.44
2023-01-09T08:12:20.446Z,100941.52
2023-01-09T08:13:22.695Z,100935.45
2023-01-09T08:14:28.013Z,100944.12
2023-01-09T08:15:30.388Z,100936.31
2023-01-09T08:16:34.788Z,100930.28
2023-01-09T08:17:38.178Z,100932.86
2023-01-09T08:18:41.685Z,100929.39
2023-01-09T08:19:44.026Z,100926.80
2023-01-09T08:20:48.797Z,100925.93
2023-01-09T08:21:52.095Z,100920.75
2023-01-09T08:22:55.691Z,100920.73
2023-01-09T08:23:58.959Z,100914.67
2023-01-09T08:25:01.355Z,100914.69
2023-01-09T08:26:05.004Z,100908.63
2023-01-09T08:27:08.567Z,100906.05
2023-01-09T08:28:12.799Z,100915.55
2023-01-09T08:29:16.001Z,100907.78
2023-01-09T08:30:19.909Z,100907.77
2023-01-09T08:31:23.073Z,100912.10
2023-01-09T08:32:28.011Z,100909.48
2023-01-09T08:33:32.311Z,100903.42
2023-01-09T08:34:37.339Z,100906.02
2023-01-09T08:35:41.112Z,100907.77
2023-01-09T08:36:43.345Z,100906.02
2023-01-09T08:37:49.978Z,100906.88
2023-01-09T08:38:54.231Z,100910.34
2023-01-09T08:39:57.631Z,100904.30
2023-01-09T08:41:04.556Z,100912.97
2023-01-09T08:42:27.296Z,100909.50
2023-01-09T08:43:50.972Z,100917.27
2023-01-09T08:45:11.941Z,100918.13
2023-01-09T08:46:38.346Z,100907.77
2023-01-09T08:47:43.059Z,100902.57
2023-01-09T08:48:46.760Z,100908.63
2023-01-09T08:49:49.992Z,100917.27
2023-01-09T08:50:54.938Z,100910.36
2023-01-09T08:51:59.189Z,100905.14
2023-01-09T08:53:02.455Z,100902.55
2023-01-09T08:54:05.642Z,100899.11
2023-01-09T08:55:08.853Z,100899.97
2023-01-09T08:56:12.053Z,100901.70
2023-01-09T08:57:17.408Z,100899.07
2023-01-09T08:58:20.216Z,100898.20
2023-01-09T08:59:23.912Z,100890.41
2023-01-09T09:00:26.447Z,100881.75
2023-01-09T09:01:29.793Z,100884.34
2023-01-09T09:02:36.207Z,100880.87
2023-01-09T09:03:39.705Z,100878.24
2023-01-09T09:04:43.214Z,100883.44
2023-01-09T09:05:46.972Z,100873.00
2023-01-09T09:06:50.978Z,100875.59
2023-01-09T09:07:54.564Z,100873.91
2023-01-09T09:08:59.005Z,100864.34
2023-01-09T09:10:03.712Z,100869.53
2023-01-09T09:11:08.402Z,100866.06
2023-01-09T09:12:10.985Z,100866.06
2023-01-09T09:13:14.303Z,100867.84
2023-01-09T09:14:25.867Z,100866.16
2023-01-09T09:15:29.387Z,100863.51
2023-01-09T09:16:32.302Z,100861.73
2023-01-09T09:17:38.531Z,100863.45
2023-01-09T09:18:41.718Z,100868.66
2023-01-09T09:19:44.952Z,100868.71
2023-01-09T09:20:48.439Z,100863.52
2023-01-09T09:21:50.814Z,100860.87
2023-01-09T09:22:54.178Z,100862.65
2023-01-09T09:23:58.383Z,100853.94
2023-01-09T09:25:01.953Z,100853.98
2023-01-09T09:26:04.804Z,100850.51
2023-01-09T09:27:07.571Z,100844.41
2023-01-09T09:28:10.588Z,100843.53
2023-01-09T09:29:14.360Z,100842.66
2023-01-09T09:30:20.375Z,100840.02
2023-01-09T09:31:25.086Z,100834.81
2023-01-09T09:32:28.323Z,100834.88
2023-01-09T09:33:31.647Z,100834.92
2023-01-09T09:34:37.016Z,100831.45
2023-01-09T09:35:41.243Z,100818.45
2023-01-09T09:36:47.940Z,100832.27
2023-01-09T09:37:59.664Z,100840.87
2023-01-09T09:39:03.895Z,100844.41
2023-01-09T09:40:17.965Z,100844.41
2023-01-09T09:41:18.242Z,100841.80
2023-01-09T09:42:43.330Z,100852.98
2023-01-09T09:44:09.083Z,100842.59
2023-01-09T09:45:15.409Z,100838.28
2023-01-09T09:46:22.597Z,100842.66
2023-01-09T09:47:44.547Z,100844.40
2023-01-09T09:48:56.700Z,100842.61
2023-01-09T09:50:01.706Z,100835.73
2023-01-09T09:51:05.755Z,100839.19
2023-01-09T09:52:11.938Z,100842.71
2023-01-09T09:53:17.329Z,100845.31
2023-01-09T09:54:21.408Z,100843.52
2023-01-09T09:55:29.774Z,100838.28
2023-01-09T09:56:34.048Z,100837.39
2023-01-09T09:57:37.863Z,100837.34
2023-01-09T09:58:41.745Z,100837.27
2023-01-09T09:59:45.541Z,100833.86
2023-01-09T10:00:50.348Z,100834.80
2023-01-09T10:01:55.925Z,100832.11
2023-01-09T10:03:08.067Z,100839.00
2023-01-09T10:04:12.528Z,100836.34
2023-01-09T10:05:16.684Z,100827.67
2023-01-09T10:06:28.152Z,100828.55
2023-01-09T10:07:40.520Z,100827.80
2023-01-09T10:08:56.320Z,100829.66
2023-01-09T10:10:05.584Z,100826.13
2023-01-09T10:11:11.684Z,100835.66
2023-01-09T10:12:32.434Z,100839.14
2023-01-09T10:13:55.568Z,100832.20
2023-01-09T10:15:10.050Z,100832.12
2023-01-09T10:16:21.887Z,100831.26
2023-01-09T10:17:32.926Z,100824.25
2023-01-09T10:18:37.695Z,100826.83
2023-01-09T10:19:57.024Z,100818.23
2023-01-09T10:21:01.832Z,100819.12
2023-01-09T10:22:15.467Z,100820.87
2023-01-09T10:23:34.845Z,100808.73
2023-01-09T10:24:40.819Z,100812.26
2023-01-09T10:25:49.071Z,100803.52
2023-01-09T10:26:56.075Z,100809.59
2023-01-09T10:28:17.710Z,100799.17
2023-01-09T10:29:21.925Z,100799.16
2023-01-09T10:30:40.479Z,100805.16
2023-01-09T10:32:02.471Z,100806.11
2023-01-09T10:33:08.059Z,100799.19
2023-01-09T10:34:18.672Z,100805.24
2023-01-09T10:35:47.074Z,100801.77
2023-01-09T10:36:53.250Z,100784.33
2023-01-09T10:37:59.298Z,100794.84
2023-01-09T10:39:04.154Z,100791.36
2023-01-09T10:40:10.414Z,100788.79
2023-01-09T10:41:21.618Z,100780.09
2023-01-09T10:42:44.526Z,100785.22
2023-01-09T10:43:52.648Z,100775.53
2023-01-09T10:45:12.246Z,100772.83
2023-01-09T10:46:23.385Z,100778.03
2023-01-09T10:47:29.979Z,100780.64
2023-01-09T10:48:35.988Z,100772.81
2023-01-09T10:49:40.021Z,100784.14
2023-01-09T10:50:46.482Z,100786.72
2023-01-09T10:51:51.198Z,100777.94
2023-01-09T10:52:57.117Z,100779.69
2023-01-09T10:54:01.472Z,100778.74
2023-01-09T10:55:07.048Z,100767.38
2023-01-09T10:56:30.490Z,100771.84
2023-01-09T10:57:35.780Z,100777.20
2023-01-09T10:58:40.647Z,100773.69
2023-01-09T10:59:44.255Z,100777.09
2023-01-09T11:00:48.291Z,100774.53
2023-01-09T11:01:53.193Z,100771.12
2023-01-09T11:02:55.493Z,100771.97
2023-01-09T11:04:00.770Z,100775.47
2023-01-09T11:05:05.222Z,100768.70
2023-01-09T11:06:10.924Z,100779.05
2023-01-09T11:07:18.826Z,100778.94
2023-01-09T11:08:40.547Z,100767.66
2023-01-09T11:09:57.791Z,100771.08
2023-01-09T11:11:02.659Z,100782.39
2023-01-09T11:12:07.715Z,100768.48
2023-01-09T11:13:21.780Z,100763.28
2023-01-09T11:14:27.483Z,100764.12
2023-01-09T11:15:31.400Z,100774.53
2023-01-09T11:16:35.203Z,100771.83
2023-01-09T11:17:38.503Z,100768.38
2023-01-09T11:18:44.512Z,100764.92
2023-01-09T11:20:07.270Z,100772.82
2023-01-09T11:21:14.617Z,100771.95
2023-01-09T11:22:18.855Z,100772.75
2023-01-09T11:23:35.145Z,100759.64
2023-01-09T11:24:38.485Z,100766.62
2023-01-09T11:25:43.920Z,100766.64
2023-01-09T11:26:48.227Z,100765.77
2023-01-09T11:28:06.986Z,100772.05
2023-01-09T11:29:15.065Z,100761.66
2023-01-09T11:30:21.865Z,100755.48
2023-01-09T11:31:28.294Z,100764.14
2023-01-09T11:32:32.797Z,100754.64
2023-01-09T11:33:39.349Z,100769.39
2023-01-09T11:34:45.006Z,100753.72
2023-01-09T11:36:00.344Z,100772.73
2023-01-09T11:37:05.527Z,100760.65
2023-01-09T11:38:11.015Z,100762.45
2023-01-09T11:39:22.458Z,100765.98
2023-01-09T11:40:25.958Z,100751.29
2023-01-09T11:41:38.023Z,100760.78
2023-01-09T11:42:53.880Z,100759.94
2023-01-09T11:43:59.183Z,100759.81
2023-01-09T11:45:02.426Z,100763.27
2023-01-09T11:46:10.851Z,100755.34
2023-01-09T11:47:28.453Z,100762.31
2023-01-09T11:48:35.527Z,100757.23
2023-01-09T11:49:38.693Z,100750.28
2023-01-09T11:50:43.761Z,100745.94
2023-01-09T11:51:47.627Z,100758.30
2023-01-09T11:54:09.328Z,100756.27
2023-01-09T11:55:14.602Z,100763.33
2023-01-09T11:56:18.836Z,100757.31
2023-01-09T11:57:23.488Z,100760.72
2023-01-09T11:58:28.560Z,100761.55
2023-01-09T11:59:32.012Z,100764.98
2023-01-09T12:00:36.729Z,100756.13
2023-01-09T12:01:47.431Z,100753.52
2023-01-09T12:02:53.722Z,100742.31
2023-01-09T12:04:10.280Z,100757.19
2023-01-09T12:05:18.751Z,100741.61
2023-01-09T12:06:36.379Z,100746.95
2023-01-09T12:07:53.675Z,100743.45
2023-01-09T12:09:07.489Z,100737.30
2023-01-09T12:10:15.713Z,100732.90
2023-01-09T12:11:26.924Z,100733.64
2023-01-09T12:12:38.164Z,100729.34
2023-01-09T12:13:55.838Z,100739.01
2023-01-09T12:15:12.419Z,100737.30
2023-01-09T12:16:17.986Z,100732.83
2023-01-09T12:17:23.292Z,100728.58
2023-01-09T12:18:29.318Z,100734.52
2023-01-09T12:19:52.562Z,100731.92
2023-01-09T12:20:59.931Z,100717.22
2023-01-09T12:22:05.132Z,100721.60
2023-01-09T12:23:29.707Z,100724.13
2023-01-09T12:24:37.811Z,100726.81
2023-01-09T12:25:45.254Z,100718.06
2023-01-09T12:28:36.066Z,100712.71
2023-01-09T12:30:00.419Z,100711.09
2023-01-09T12:31:21.633Z,100717.33
2023-01-09T12:32:42.661Z,100709.45
2023-01-09T12:33:53.484Z,100726.80
2023-01-09T12:35:05.959Z,100713.88
2023-01-09T12:36:23.432Z,100711.23
2023-01-09T12:37:46.610Z,100707.77
2023-01-09T12:38:54.713Z,100713.10
2023-01-09T12:40:04.694Z,100700.80
2023-01-09T12:41:09.614Z,100705.19
2023-01-09T12:42:20.788Z,100705.97
2023-01-09T12:43:28.044Z,100710.26
2023-01-09T12:44:35.882Z,100712.00
2023-01-09T12:45:41.540Z,100692.95
2023-01-09T12:46:46.194Z,100704.99
2023-01-09T12:47:51.578Z,100696.30
2023-01-09T12:49:13.884Z,100695.44
2023-01-09T12:50:31.095Z,100695.44
2023-01-09T12:51:37.715Z,100701.57
2023-01-09T12:52:45.702Z,100693.75
2023-01-09T12:53:54.028Z,100701.57
2023-01-09T12:55:04.141Z,100702.41
2023-01-09T12:56:11.272Z,100703.17
2023-01-09T12:57:36.383Z,100702.27
2023-01-09T12:58:47.531Z,100702.26
2023-01-09T13:01:05.346Z,100698.07
2023-01-09T13:02:15.962Z,100705.88
2023-01-09T13:03:22.001Z,100712.84
2023-01-09T13:04:27.179Z,100703.95
2023-01-09T13:05:32.455Z,100704.85
2023-01-09T13:06:36.588Z,100711.78
2023-01-09T13:07:42.723Z,100716.83
2023-01-09T13:08:51.963Z,100713.48
2023-01-09T13:09:59.872Z,100715.39
2023-01-09T13:11:19.469Z,100714.41
2023-01-09T13:12:16.049Z,100712.66
2023-01-09T13:13:21.442Z,100728.29
2023-01-09T13:14:25.891Z,100723.06
2023-01-09T13:16:59.325Z,100723.92
2023-01-09T13:18:04.394Z,100718.72
2023-01-09T13:19:14.365Z,100728.34
2023-01-09T13:20:19.756Z,100726.50
2023-01-09T13:21:22.211Z,100734.27
2023-01-09T17:40:51.566Z,100732.94
2023-01-09T17:41:55.134Z,100716.47
2023-01-09T17:42:57.338Z,100717.27
2023-01-09T17:44:01.646Z,100714.63
2023-01-09T17:45:06.572Z,100719.08
2023-01-09T17:46:11.850Z,100735.67
2023-01-09T17:47:16.507Z,100723.53
2023-01-09T17:48:21.669Z,100727.66
2023-01-09T17:49:24.437Z,100723.34
2023-01-09T17:50:31.684Z,100725.91
2023-01-09T17:51:38.656Z,100737.40
2023-01-09T17:52:45.426Z,100739.00
2023-01-09T17:53:48.903Z,100725.07
2023-01-09T17:54:53.885Z,100731.02
2023-01-09T17:55:57.476Z,100728.36
2023-01-09T17:57:01.396Z,100739.64
2023-01-09T17:58:04.275Z,100723.05
2023-01-09T17:59:08.932Z,100730.73
2023-01-09T18:00:26.560Z,100725.63
2023-01-09T18:01:30.807Z,100734.40
2023-01-09T18:02:33.346Z,100741.14
2023-01-09T18:03:37.062Z,100740.40
2023-01-09T18:04:40.556Z,100734.38
2023-01-09T18:05:43.736Z,100735.47
2023-01-09T18:06:49.039Z,100730.92
2023-01-09T18:07:52.532Z,100737.98
2023-01-09T18:08:57.298Z,100740.62
2023-01-09T18:09:59.961Z,100740.65
2023-01-09T18:11:04.787Z,100739.83
2023-01-09T18:12:08.228Z,100730.25
2023-01-09T18:13:12.900Z,100733.62
2023-01-09T18:14:17.493Z,100732.61
2023-01-09T18:15:21.461Z,100728.30
2023-01-09T18:16:26.910Z,100727.45
2023-01-09T18:17:32.266Z,100732.78
2023-01-09T18:18:36.329Z,100727.61
2023-01-09T18:19:40.070Z,100731.77
2023-01-09T18:20:44.102Z,100725.00
2023-01-09T18:21:47.593Z,100720.66
2023-01-09T18:22:50.898Z,100731.05
2023-01-09T18:23:54.508Z,100734.61
2023-01-09T18:24:57.805Z,100730.21
2023-01-09T18:26:01.925Z,100726.61
2023-01-09T18:27:05.232Z,100727.41
2023-01-09T18:28:08.621Z,100729.34
2023-01-09T18:29:13.391Z,100718.80
2023-01-09T18:30:16.789Z,100723.19
2023-01-09T18:31:21.593Z,100724.15
2023-01-09T18:32:26.122Z,100724.17
2023-01-09T18:33:28.757Z,100717.19
2023-01-09T18:34:31.217Z,100724.07
2023-01-09T18:35:35.563Z,100718.85
2023-01-09T18:36:37.943Z,100720.59
2023-01-09T18:37:41.540Z,100709.30
2023-01-09T18:38:44.936Z,100720.58
2023-01-09T18:39:51.502Z,100718.78
2023-01-09T18:40:57.475Z,100719.72
2023-01-09T18:42:01.810Z,100725.89
2023-01-09T18:43:09.788Z,100731.92
2023-01-09T18:44:16.135Z,100738.75
2023-01-09T18:45:21.557Z,100736.08
2023-01-09T18:46:25.727Z,100735.22
2023-01-09T18:47:29.373Z,100731.66
2023-01-09T18:48:33.297Z,100735.16
2023-01-09T18:49:35.967Z,100733.45
2023-01-09T18:50:42.491Z,100729.05
2023-01-09T18:51:48.173Z,100720.34
2023-01-09T18:52:52.438Z,100726.28
2023-01-09T18:53:55.936Z,100732.57
2023-01-09T18:54:59.444Z,100722.09
2023-01-09T18:56:03.472Z,100730.92
2023-01-09T18:57:05.939Z,100721.37
2023-01-09T18:58:09.122Z,100733.55
2023-01-09T18:59:12.737Z,100736.97
2023-01-09T19:00:16.289Z,100731.79
2023-01-09T19:01:19.063Z,100730.91
2023-01-09T19:02:24.044Z,100730.00
2023-01-09T19:03:27.996Z,100730.00
2023-01-09T19:04:32.158Z,100728.30
2023-01-09T19:05:35.643Z,100725.64
2023-01-09T19:06:39.883Z,100719.64
2023-01-09T19:07:43.268Z,100724.86
2023-01-09T19:08:45.852Z,100721.54
2023-01-09T19:09:49.145Z,100717.85
2023-01-09T19:10:53.374Z,100721.50
2023-01-09T19:11:56.673Z,100723.27
2023-01-09T19:13:02.031Z,100716.30
2023-01-09T19:14:05.388Z,100724.07
2023-01-09T19:15:12.983Z,100733.53
2023-01-09T19:16:17.917Z,100724.80
2023-01-09T19:17:23.494Z,100725.69
2023-01-09T19:18:26.787Z,100725.81
2023-01-09T19:19:32.283Z,100724.72
2023-01-09T19:20:36.612Z,100727.19
2023-01-09T19:21:39.169Z,100720.27
2023-01-09T19:22:44.060Z,100722.88
2023-01-09T19:23:48.281Z,100726.39
2023-01-09T19:24:53.035Z,100723.69
2023-01-09T19:25:58.083Z,100715.92
2023-01-09T19:27:01.514Z,100727.23
2023-01-09T19:28:04.175Z,100713.93
2023-01-09T19:29:07.301Z,100730.53
2023-01-09T19:30:10.777Z,100729.76
2023-01-09T19:31:14.943Z,100728.94
2023-01-09T19:32:18.561Z,100723.73
2023-01-09T19:33:21.865Z,100721.92
2023-01-09T19:34:25.969Z,100724.63
2023-01-09T19:35:28.404Z,100723.91
2023-01-09T19:36:34.305Z,100726.61
2023-01-09T19:37:36.877Z,100730.17
2023-01-09T19:38:39.952Z,100733.53
2023-01-09T19:39:43.365Z,100737.81
2023-01-09T19:40:46.827Z,100740.46
2023-01-09T19:41:50.496Z,100742.20
2023-01-09T19:42:55.440Z,100744.84
2023-01-09T19:44:02.510Z,100748.31
2023-01-09T19:45:06.806Z,100744.86
2023-01-09T19:46:13.474Z,100743.73
2023-01-09T19:47:16.806Z,100750.72
2023-01-09T19:48:20.299Z,100750.70
2023-01-09T19:49:23.827Z,100753.28
2023-01-09T19:50:28.932Z,100759.37
2023-01-09T19:51:33.967Z,100757.79
2023-01-09T19:52:38.167Z,100760.52
2023-01-09T19:53:41.153Z,100756.10
2023-01-09T19:54:44.361Z,100755.02
2023-01-09T19:55:47.639Z,100761.28
2023-01-09T19:56:52.063Z,100769.98
2023-01-09T19:57:57.363Z,100771.63
2023-01-09T19:59:01.721Z,100775.98
2023-01-09T20:00:06.468Z,100773.45
2023-01-09T20:01:16.557Z,100768.16
2023-01-09T20:03:25.430Z,100770.92
2023-01-09T20:04:31.344Z,100773.53
2023-01-09T20:05:34.118Z,100772.55
2023-01-09T20:06:42.134Z,100770.90
2023-01-09T20:07:45.411Z,100776.94
2023-01-09T20:08:48.714Z,100775.08
2023-01-09T20:09:51.054Z,100775.84
2023-01-09T20:10:54.464Z,100789.78
2023-01-09T20:11:58.180Z,100777.66
2023-01-09T20:13:03.667Z,100773.30
2023-01-09T20:14:12.395Z,100774.22
2023-01-09T20:15:15.896Z,100782.92
2023-01-09T20:16:20.252Z,100784.58
2023-01-09T20:17:22.926Z,100785.48
2023-01-09T20:18:26.624Z,100789.02
2023-01-09T20:19:30.457Z,100783.78
2023-01-09T20:20:34.052Z,100780.23
2023-01-09T20:21:41.893Z,100774.14
2023-01-09T20:22:45.555Z,100771.51
2023-01-09T20:23:48.327Z,100775.97
2023-01-09T20:24:51.624Z,100770.62
2023-01-09T20:25:56.937Z,100783.68
2023-01-09T20:27:01.248Z,100788.21
2023-01-09T20:28:07.845Z,100782.87
2023-01-09T20:29:11.177Z,100783.80
2023-01-09T20:30:14.248Z,100779.30
2023-01-09T20:31:19.404Z,100785.27
2023-01-09T20:32:21.902Z,100782.66
2023-01-09T20:33:25.250Z,100791.31
2023-01-09T20:34:29.851Z,100790.81
2023-01-09T20:35:33.364Z,100804.69
2023-01-09T20:36:36.754Z,100786.27
2023-01-09T20:37:40.500Z,100797.70
2023-01-09T20:38:44.302Z,100813.50
2023-01-09T20:39:47.680Z,100804.84
2023-01-09T20:40:50.256Z,100803.88
2023-01-09T20:41:55.472Z,100788.16
2023-01-09T20:42:59.496Z,100787.57
2023-01-09T20:44:04.426Z,100800.45
2023-01-09T20:45:08.458Z,100815.30
2023-01-09T20:46:11.985Z,100783.97
2023-01-09T20:47:14.939Z,100792.83
2023-01-09T20:48:17.360Z,100793.67
2023-01-09T20:49:21.113Z,100791.88
2023-01-09T20:50:24.513Z,100792.80
2023-01-09T20:51:28.025Z,100802.31
2023-01-09T20:52:31.629Z,100793.52
2023-01-09T20:53:37.133Z,100800.62
2023-01-09T20:54:43.144Z,100797.02
2023-01-09T20:55:47.352Z,100801.52
2023-01-09T20:56:50.986Z,100811.99
2023-01-09T20:57:57.423Z,100805.89
2023-01-09T20:59:01.348Z,100800.78
2023-01-09T21:00:05.457Z,100798.13
2023-01-09T21:01:10.265Z,100800.83
2023-01-09T21:02:15.114Z,100789.48
2023-01-09T21:03:17.560Z,100797.27
2023-01-09T21:04:20.152Z,100804.20
2023-01-09T21:05:23.611Z,100794.67
2023-01-09T21:06:28.311Z,100802.48
2023-01-09T21:07:31.654Z,100810.33
2023-01-09T21:08:35.300Z,100805.05
2023-01-09T21:09:38.497Z,100815.67
2023-01-09T21:10:41.753Z,100811.38
2023-01-09T21:11:49.976Z,100808.78
2023-01-09T21:12:53.372Z,100816.61
2023-01-09T21:14:02.593Z,100827.05
2023-01-09T21:15:11.452Z,100831.50
2023-01-09T21:16:16.330Z,100833.27
2023-01-09T21:17:19.612Z,100826.28
2023-01-09T21:18:22.581Z,100818.36
2023-01-09T21:19:25.992Z,100824.44
2023-01-09T21:20:32.305Z,100826.36
2023-01-09T21:21:36.584Z,100826.37
2023-01-09T21:22:42.776Z,100828.09
2023-01-09T21:23:48.077Z,100817.64
2023-01-09T21:24:50.933Z,100820.35
2023-01-09T21:25:57.352Z,100829.98
2023-01-09T21:27:00.873Z,100823.03
2023-01-09T21:28:03.850Z,100827.31
2023-01-09T21:29:10.036Z,100821.24
2023-01-09T21:30:15.007Z,100829.08
2023-01-09T21:31:20.848Z,100837.76
2023-01-09T21:32:24.344Z,100828.23
2023-01-09T21:33:27.221Z,100831.77
2023-01-09T21:34:30.440Z,100837.76
2023-01-09T21:35:35.178Z,100839.48
2023-01-09T21:36:39.392Z,100841.23
2023-01-09T21:37:45.515Z,100841.09
2023-01-09T21:38:49.856Z,100839.29
2023-01-09T21:39:53.012Z,100836.73
2023-01-09T21:40:56.093Z,100844.61
2023-01-09T21:42:17.396Z,100849.81
2023-01-09T21:43:48.176Z,100839.38
2023-01-09T21:45:10.995Z,100840.27
2023-01-09T21:46:33.511Z,100835.84
2023-01-09T21:47:37.020Z,100840.25
2023-01-09T21:48:40.183Z,100841.02
2023-01-09T21:49:43.692Z,100844.56
2023-01-09T21:50:47.123Z,100845.61
2023-01-09T21:51:50.222Z,100839.50
2023-01-09T21:52:52.550Z,100842.03
2023-01-09T21:53:56.902Z,100842.81
2023-01-09T21:55:00.965Z,100835.02
2023-01-09T21:56:04.324Z,100844.61
2023-01-09T21:57:08.047Z,100838.50
2023-01-09T21:58:11.444Z,100839.34
2023-01-09T21:59:15.392Z,100838.41
2023-01-09T22:00:19.394Z,100842.88
2023-01-09T22:01:21.787Z,100840.34
2023-01-09T22:02:25.255Z,100837.74
2023-01-09T22:03:28.231Z,100831.60
2023-01-09T22:04:30.721Z,100841.23
2023-01-09T22:05:35.867Z,100842.14
2023-01-09T22:06:39.172Z,100836.04
2023-01-09T22:07:42.783Z,100836.06
2023-01-09T22:08:45.960Z,100832.55
2023-01-09T22:09:49.267Z,100836.92
2023-01-09T22:10:56.347Z,100820.39
